Time;durP1;ratioP1;P1;durP2;ratioP2;P2;SDS_P1;SDS_P2;PMS_P1;PMS_P2;Temp;Humidity;BMP_temperature;BMP_pressure;BME280_temperature;BME280_humidity;BME280_pressure;Samples;Min_cycle;Max_cycle;Signal;HPM_P1;HPM_P2
2021/05/16 00:00:26;;;;;;;40.50;3.78;;;37.60;9.30;;;;;;5039630;28;20096;-63
2021/05/16 00:02:53;;;;;;;33.90;3.03;;;37.70;9.00;;;;;;5036286;28;20077;-66
2021/05/16 00:05:22;;;;;;;27.83;3.00;;;37.30;9.10;;;;;;5044347;28;20070;-65
2021/05/16 00:07:49;;;;;;;36.10;3.88;;;37.10;9.70;;;;;;5038646;28;20138;-65
2021/05/16 00:10:18;;;;;;;37.63;3.97;;;37.00;10.70;;;;;;5042029;28;20066;-64
2021/05/16 00:12:45;;;;;;;33.17;4.90;;;36.70;10.60;;;;;;5038116;28;20120;-66
2021/05/16 00:15:15;;;;;;;78.47;5.68;;;36.60;10.30;;;;;;5037733;28;20086;-66
2021/05/16 00:17:42;;;;;;;64.00;5.05;;;36.70;10.60;;;;;;5034663;28;20116;-67
2021/05/16 00:20:16;;;;;;;48.00;4.60;;;36.30;10.40;;;;;;5035931;28;20096;-69
2021/05/16 00:22:43;;;;;;;40.78;4.28;;;36.20;10.70;;;;;;5037748;28;20424;-66
2021/05/16 00:25:16;;;;;;;26.38;3.53;;;36.00;12.30;;;;;;5036891;28;20086;-65
2021/05/16 00:27:43;;;;;;;26.40;3.10;;;35.90;12.40;;;;;;5039548;28;20094;-67
2021/05/16 00:30:13;;;;;;;16.23;2.67;;;35.90;11.70;;;;;;5036155;28;20082;-67
2021/05/16 00:32:40;;;;;;;24.67;2.65;;;35.90;11.00;;;;;;5035601;28;20454;-67
2021/05/16 00:35:08;;;;;;;43.75;2.95;;;35.80;11.10;;;;;;5038300;28;20116;-66
2021/05/16 00:37:35;;;;;;;17.65;2.95;;;35.60;10.90;;;;;;5033748;28;20086;-68
2021/05/16 00:40:03;;;;;;;24.48;3.10;;;35.60;11.10;;;;;;5036106;28;20662;-67
2021/05/16 00:42:30;;;;;;;34.95;3.00;;;35.60;11.30;;;;;;5034662;28;20127;-68
2021/05/16 00:45:00;;;;;;;29.98;3.03;;;35.60;11.90;;;;;;5039210;28;20116;-68
2021/05/16 00:47:27;;;;;;;38.78;2.30;;;35.50;12.20;;;;;;5036216;28;20094;-68
2021/05/16 00:49:55;;;;;;;24.98;2.45;;;35.30;11.80;;;;;;5036103;28;20080;-68
2021/05/16 00:52:23;;;;;;;27.98;3.22;;;35.30;12.20;;;;;;5035937;28;20139;-67
2021/05/16 00:54:52;;;;;;;24.48;3.33;;;35.40;12.50;;;;;;5038414;28;20087;-68
2021/05/16 00:57:18;;;;;;;22.80;2.83;;;34.90;36.80;;;;;;5036011;28;20024;-67
2021/05/16 00:59:45;;;;;;;55.88;3.45;;;35.00;13.40;;;;;;5036928;28;20172;-67
2021/05/16 01:02:12;;;;;;;29.10;3.67;;;34.90;36.80;;;;;;5039044;28;20053;-66
2021/05/16 01:04:42;;;;;;;30.20;3.22;;;34.90;14.30;;;;;;5032208;28;20139;-66
2021/05/16 01:07:10;;;;;;;25.40;2.97;;;34.50;14.20;;;;;;5040140;28;20109;-68
2021/05/16 01:09:38;;;;;;;23.58;2.88;;;34.30;14.50;;;;;;5037374;28;20164;-67
2021/05/16 01:12:07;;;;;;;21.67;2.90;;;34.10;14.80;;;;;;5040536;28;20543;-67
2021/05/16 01:14:41;;;;;;;20.02;3.15;;;34.00;15.00;;;;;;5035452;28;20082;-67
2021/05/16 01:17:07;;;;;;;37.25;3.72;;;33.90;15.50;;;;;;5039338;28;20070;-69
2021/05/16 01:19:35;;;;;;;24.13;4.10;;;33.50;16.00;;;;;;5042001;28;20112;-65
2021/05/16 01:22:03;;;;;;;23.65;3.95;;;33.40;16.30;;;;;;5038036;28;20077;-68
2021/05/16 01:24:30;;;;;;;20.58;3.55;;;33.40;16.30;;;;;;5041468;28;20489;-65
2021/05/16 01:26:59;;;;;;;25.60;3.45;;;33.10;16.20;;;;;;5037751;28;20708;-67
2021/05/16 01:29:27;;;;;;;18.73;2.50;;;33.20;16.50;;;;;;5056556;28;20136;-66
2021/05/16 01:31:54;;;;;;;15.90;1.90;;;33.20;15.70;;;;;;5038461;28;20074;-66
2021/05/16 01:34:22;;;;;;;21.85;2.15;;;33.10;15.00;;;;;;5036957;28;20512;-67
2021/05/16 01:36:49;;;;;;;27.92;2.80;;;33.10;14.50;;;;;;5038981;28;20508;-66
2021/05/16 01:39:15;;;;;;;22.73;2.63;;;33.30;14.20;;;;;;5037341;28;20142;-66
2021/05/16 01:41:42;;;;;;;22.45;2.92;;;33.50;14.30;;;;;;5037151;28;20075;-68
2021/05/16 01:44:11;;;;;;;37.90;3.22;;;33.40;14.80;;;;;;5040814;28;20080;-67
2021/05/16 01:46:43;;;;;;;16.55;3.30;;;33.20;15.10;;;;;;5041305;28;20074;-66
2021/05/16 01:49:09;;;;;;;22.17;3.78;;;33.20;15.60;;;;;;5041333;28;20147;-67
2021/05/16 01:51:36;;;;;;;25.30;3.42;;;33.10;16.60;;;;;;5039113;28;20077;-68
2021/05/16 01:54:05;;;;;;;28.10;3.28;;;32.70;17.50;;;;;;5040329;28;20110;-67
2021/05/16 01:56:31;;;;;;;23.98;3.63;;;32.60;16.40;;;;;;5052902;28;20490;-67
2021/05/16 01:58:58;;;;;;;18.45;3.20;;;32.90;16.70;;;;;;5039529;28;20077;-67
2021/05/16 02:01:25;;;;;;;16.90;2.92;;;32.70;16.70;;;;;;5038649;28;20085;-67
2021/05/16 02:03:54;;;;;;;24.17;2.88;;;32.10;17.50;;;;;;5038326;28;20187;-68
2021/05/16 02:06:21;;;;;;;25.67;3.30;;;31.90;18.00;;;;;;5036493;28;20554;-66
2021/05/16 02:08:47;;;;;;;20.27;3.25;;;31.50;18.60;;;;;;5038407;28;20097;-66
2021/05/16 02:11:14;;;;;;;15.07;2.75;;;31.30;18.80;;;;;;5042100;28;20078;-67
2021/05/16 02:13:42;;;;;;;23.90;3.20;;;31.10;18.90;;;;;;5041467;28;20070;-67
2021/05/16 02:16:11;;;;;;;17.05;2.95;;;30.90;19.20;;;;;;5039029;28;20077;-66
2021/05/16 02:18:37;;;;;;;20.10;3.08;;;;;;;;;;5037200;28;20081;-65
2021/05/16 02:21:05;;;;;;;21.65;2.85;;;30.60;32.50;;;;;;5043040;28;20081;-64
2021/05/16 02:23:32;;;;;;;27.38;3.05;;;30.50;34.30;;;;;;5043880;28;20553;-68
2021/05/16 02:25:58;;;;;;;21.35;2.60;;;30.40;19.20;;;;;;5060960;28;20431;-67
2021/05/16 02:28:25;;;;;;;27.40;3.33;;;30.20;18.70;;;;;;5041070;28;20094;-64
2021/05/16 02:30:51;;;;;;;23.35;3.47;;;30.30;19.40;;;;;;5045028;28;20069;-65
2021/05/16 02:33:18;;;;;;;23.45;3.03;;;30.20;37.10;;;;;;5043200;28;20169;-66
2021/05/16 02:35:44;;;;;;;20.52;3.28;;;30.10;19.90;;;;;;5044306;28;20132;-66
2021/05/16 02:38:11;;;;;;;19.83;4.05;;;29.90;20.00;;;;;;5040573;28;20077;-68
2021/05/16 02:40:37;;;;;;;19.15;3.05;;;29.80;20.00;;;;;;5043443;28;20082;-66
2021/05/16 02:43:04;;;;;;;29.88;4.10;;;29.60;20.10;;;;;;5040511;28;20172;-67
2021/05/16 02:45:30;;;;;;;15.63;2.92;;;29.40;20.30;;;;;;5044317;28;20062;-66
2021/05/16 02:47:57;;;;;;;20.08;2.67;;;29.20;20.90;;;;;;5042380;28;20097;-69
2021/05/16 02:50:23;;;;;;;18.33;3.28;;;29.00;21.70;;;;;;5043402;28;20074;-68
2021/05/16 02:52:50;;;;;;;28.42;3.22;;;28.80;22.20;;;;;;5041790;28;20118;-67
2021/05/16 02:55:19;;;;;;;31.65;2.92;;;28.50;22.60;;;;;;5042046;28;20081;-67
2021/05/16 02:57:46;;;;;;;16.00;3.28;;;28.40;22.80;;;;;;5041343;28;20098;-68
2021/05/16 03:00:13;;;;;;;21.40;2.78;;;28.30;22.80;;;;;;5057480;28;20122;-67
2021/05/16 03:02:39;;;;;;;12.68;2.25;;;28.20;22.70;;;;;;5043041;28;20077;-67
2021/05/16 03:05:07;;;;;;;24.52;2.65;;;28.10;22.70;;;;;;5049605;28;20073;-68
2021/05/16 03:07:33;;;;;;;16.27;2.58;;;28.00;22.40;;;;;;5048397;28;20135;-68
2021/05/16 03:10:00;;;;;;;35.22;2.85;;;27.90;22.70;;;;;;5040663;28;20066;-66
2021/05/16 03:12:26;;;;;;;15.98;2.63;;;27.80;22.80;;;;;;5041672;28;20082;-67
2021/05/16 03:14:53;;;;;;;17.30;2.70;;;27.60;23.00;;;;;;5041403;28;20093;-66
2021/05/16 03:17:19;;;;;;;21.10;3.28;;;27.50;23.10;;;;;;5038888;28;20070;-67
2021/05/16 03:19:46;;;;;;;23.98;2.78;;;27.40;23.30;;;;;;5041953;28;20157;-67
2021/05/16 03:22:13;;;;;;;25.08;2.80;;;27.30;23.50;;;;;;5045034;28;20442;-68
2021/05/16 03:24:39;;;;;;;26.42;3.20;;;27.20;23.60;;;;;;5043021;28;20089;-67
2021/05/16 03:27:06;;;;;;;36.13;3.53;;;27.10;23.80;;;;;;5058525;28;20081;-67
2021/05/16 03:29:33;;;;;;;22.30;3.13;;;27.00;23.80;;;;;;5052849;28;20524;-69
2021/05/16 03:32:00;;;;;;;30.67;2.90;;;26.90;24.00;;;;;;5045646;28;20074;-68
2021/05/16 03:34:26;;;;;;;29.08;3.38;;;26.80;24.10;;;;;;5041762;28;20070;-65
2021/05/16 03:36:53;;;;;;;22.73;3.15;;;26.70;24.10;;;;;;5052576;28;20062;-67
2021/05/16 03:39:20;;;;;;;21.75;3.08;;;26.60;24.00;;;;;;5054869;28;20105;-69
2021/05/16 03:41:47;;;;;;;26.00;2.92;;;26.60;24.10;;;;;;5041906;28;20116;-67
2021/05/16 03:44:14;;;;;;;19.88;2.65;;;26.60;24.10;;;;;;5040719;28;20531;-67
2021/05/16 03:46:41;;;;;;;19.08;2.47;;;26.50;24.20;;;;;;5041140;28;20078;-68
2021/05/16 03:49:07;;;;;;;28.23;2.60;;;26.40;24.30;;;;;;5041334;28;20156;-68
2021/05/16 03:51:34;;;;;;;13.88;2.20;;;26.40;24.50;;;;;;5042518;28;20181;-69
2021/05/16 03:54:00;;;;;;;12.88;2.35;;;26.30;24.60;;;;;;5040918;28;20113;-68
2021/05/16 03:56:30;;;;;;;20.70;2.35;;;26.20;24.80;;;;;;5043693;28;20081;-67
2021/05/16 03:58:56;;;;;;;16.88;2.40;;;26.20;24.80;;;;;;5039447;28;20531;-69
2021/05/16 04:01:23;;;;;;;30.38;2.70;;;26.10;24.60;;;;;;5042320;28;20090;-66
2021/05/16 04:03:49;;;;;;;21.40;2.85;;;26.00;24.60;;;;;;5044498;28;20081;-69
2021/05/16 04:06:16;;;;;;;22.95;2.20;;;25.80;24.50;;;;;;5038440;28;20544;-68
2021/05/16 04:08:42;;;;;;;24.48;2.60;;;25.80;24.40;;;;;;5041669;28;20098;-67
2021/05/16 04:11:09;;;;;;;14.07;2.00;;;25.80;24.30;;;;;;5040767;28;20076;-66
2021/05/16 04:13:35;;;;;;;29.33;2.80;;;25.70;24.50;;;;;;5040208;28;20078;-68
2021/05/16 04:16:02;;;;;;;29.60;2.88;;;25.60;24.60;;;;;;5041873;28;20153;-69
2021/05/16 04:18:29;;;;;;;21.40;3.53;;;25.60;24.60;;;;;;5040068;28;20474;-67
2021/05/16 04:20:56;;;;;;;24.17;2.30;;;25.60;24.70;;;;;;5040286;28;20123;-67
2021/05/16 04:23:25;;;;;;;27.65;2.10;;;25.50;24.90;;;;;;5043503;28;20188;-66
2021/05/16 04:25:51;;;;;;;17.80;2.03;;;25.40;25.00;;;;;;5037153;28;20076;-68
2021/05/16 04:28:18;;;;;;;18.00;2.70;;;25.40;25.00;;;;;;5041249;28;20144;-67
2021/05/16 04:30:44;;;;;;;20.80;1.90;;;25.30;24.90;;;;;;5039672;28;20587;-67
2021/05/16 04:33:11;;;;;;;18.60;2.33;;;25.20;25.10;;;;;;5035356;28;20086;-67
2021/05/16 04:35:38;;;;;;;19.38;2.08;;;25.20;25.20;;;;;;5039392;28;20435;-66
2021/05/16 04:38:04;;;;;;;25.10;2.38;;;25.10;25.10;;;;;;5039341;28;20501;-67
2021/05/16 04:40:31;;;;;;;24.02;2.22;;;25.10;24.80;;;;;;5037649;28;20069;-69
2021/05/16 04:42:57;;;;;;;19.77;3.03;;;25.10;24.50;;;;;;5036384;28;20426;-67
2021/05/16 04:45:24;;;;;;;14.82;2.35;;;25.10;24.50;;;;;;5054459;28;20074;-67
2021/05/16 04:47:51;;;;;;;24.98;2.83;;;25.10;24.50;;;;;;5038862;28;20155;-67
2021/05/16 04:50:18;;;;;;;21.75;1.95;;;25.10;24.60;;;;;;5056450;28;20078;-65
2021/05/16 04:52:48;;;;;;;11.18;1.90;;;25.00;24.70;;;;;;5039152;28;20110;-67
2021/05/16 04:55:15;;;;;;;18.33;2.05;;;24.90;25.00;;;;;;5040506;28;20101;-66
2021/05/16 04:57:42;;;;;;;15.93;1.98;;;;;;;;;;5038119;28;20077;-67
2021/05/16 05:00:09;;;;;;;11.95;1.90;;;25.00;29.40;;;;;;5038602;28;20078;-67
2021/05/16 05:02:37;;;;;;;22.92;2.28;;;24.80;25.20;;;;;;5037618;28;20070;-66
2021/05/16 05:05:04;;;;;;;14.25;1.48;;;24.70;25.30;;;;;;5035846;28;20078;-67
2021/05/16 05:07:31;;;;;;;15.85;2.10;;;24.70;25.30;;;;;;5038918;28;20128;-66
2021/05/16 05:09:58;;;;;;;14.80;2.47;;;24.60;25.30;;;;;;5040249;28;20081;-66
2021/05/16 05:12:24;;;;;;;11.75;1.73;;;24.50;25.20;;;;;;5050126;28;20152;-65
2021/05/16 05:14:51;;;;;;;11.85;1.67;;;24.50;25.20;;;;;;5035775;28;20091;-67
2021/05/16 05:17:17;;;;;;;16.05;1.63;;;24.50;25.40;;;;;;5034705;28;20439;-66
2021/05/16 05:19:44;;;;;;;14.82;1.67;;;24.50;25.60;;;;;;5037642;28;20157;-67
2021/05/16 05:22:10;;;;;;;19.80;2.53;;;24.50;25.60;;;;;;5033903;28;20169;-64
2021/05/16 05:24:37;;;;;;;27.83;2.10;;;24.40;25.70;;;;;;5037169;28;20164;-66
2021/05/16 05:27:06;;;;;;;15.45;1.65;;;24.40;25.70;;;;;;5040530;28;20105;-68
2021/05/16 05:29:32;;;;;;;16.23;1.77;;;24.30;25.80;;;;;;5038931;28;20539;-67
2021/05/16 05:31:59;;;;;;;26.75;2.85;;;24.30;26.20;;;;;;5039969;28;20100;-67
2021/05/16 05:34:26;;;;;;;22.30;2.13;;;24.20;26.80;;;;;;5037116;28;20085;-67
2021/05/16 05:36:56;;;;;;;29.35;2.60;;;24.10;27.40;;;;;;5039736;28;20098;-68
2021/05/16 05:39:22;;;;;;;32.75;3.28;;;24.00;27.60;;;;;;5054691;28;20102;-67
2021/05/16 05:41:49;;;;;;;21.92;3.10;;;23.90;27.60;;;;;;5036213;28;20074;-67
2021/05/16 05:44:16;;;;;;;24.75;3.25;;;23.80;27.50;;;;;;5040057;28;20082;-67
2021/05/16 05:46:42;;;;;;;22.83;2.85;;;23.90;27.80;;;;;;5039861;28;20085;-64
2021/05/16 05:49:09;;;;;;;22.50;2.80;;;23.80;28.00;;;;;;5036980;28;20514;-67
2021/05/16 05:51:36;;;;;;;20.60;2.65;;;23.80;28.30;;;;;;5037650;28;20178;-66
2021/05/16 05:54:03;;;;;;;19.65;2.53;;;23.70;28.60;;;;;;5040031;28;20523;-66
2021/05/16 05:56:29;;;;;;;25.45;2.50;;;23.70;28.70;;;;;;5039330;28;20227;-67
2021/05/16 05:58:56;;;;;;;19.55;2.90;;;23.70;29.20;;;;;;5039808;28;20444;-65
2021/05/16 06:01:22;;;;;;;27.98;3.03;;;23.50;29.10;;;;;;5040706;28;20078;-65
2021/05/16 06:03:49;;;;;;;18.42;2.40;;;23.40;29.40;;;;;;5043181;28;20081;-66
2021/05/16 06:06:15;;;;;;;19.55;2.30;;;23.50;29.10;;;;;;5045375;28;20531;-67
2021/05/16 06:08:42;;;;;;;12.65;2.53;;;23.40;29.40;;;;;;5041008;28;20128;-67
2021/05/16 06:11:10;;;;;;;23.40;3.53;;;23.30;29.40;;;;;;5042116;28;20065;-66
2021/05/16 06:13:37;;;;;;;31.40;3.45;;;23.30;29.10;;;;;;5040301;28;20093;-66
2021/05/16 06:16:04;;;;;;;25.30;2.72;;;23.30;29.10;;;;;;5036309;28;20172;-65
2021/05/16 06:18:30;;;;;;;21.30;3.20;;;23.20;29.50;;;;;;5039366;28;20085;-67
2021/05/16 06:20:57;;;;;;;34.63;3.85;;;23.20;29.80;;;;;;5037505;28;20590;-66
2021/05/16 06:23:32;;;;;;;37.15;3.90;;;23.00;30.50;;;;;;5037957;28;20090;-66
2021/05/16 06:25:59;;;;;;;49.00;3.88;;;23.00;30.60;;;;;;5041311;28;20557;-67
2021/05/16 06:28:25;;;;;;;32.78;3.25;;;22.90;31.50;;;;;;5038007;28;20129;-66
2021/05/16 06:30:52;;;;;;;46.35;3.65;;;22.80;31.50;;;;;;5039150;28;20096;-66
2021/05/16 06:33:19;;;;;;;39.60;3.80;;;22.80;30.00;;;;;;5042070;28;20081;-62
2021/05/16 06:35:45;;;;;;;32.80;2.67;;;22.90;29.20;;;;;;5039702;28;20078;-65
2021/05/16 06:38:11;;;;;;;37.75;2.85;;;22.80;29.40;;;;;;5041350;28;20507;-65
2021/05/16 06:40:38;;;;;;;34.30;3.60;;;22.80;28.70;;;;;;5038749;28;20066;-66
2021/05/16 06:43:05;;;;;;;30.88;3.25;;;22.80;29.30;;;;;;5041787;28;20109;-66
2021/05/16 06:45:33;;;;;;;35.63;3.38;;;22.80;30.30;;;;;;5037538;28;20084;-67
2021/05/16 06:47:59;;;;;;;40.95;2.95;;;22.50;32.30;;;;;;5054118;28;20237;-66
2021/05/16 06:50:26;;;;;;;37.10;2.83;;;22.30;33.80;;;;;;5039673;28;20070;-66
2021/05/16 06:52:53;;;;;;;39.50;3.55;;;22.30;34.00;;;;;;5040836;28;20162;-66
2021/05/16 06:55:21;;;;;;;54.28;4.85;;;22.00;35.30;;;;;;5037085;28;20090;-65
2021/05/16 06:57:47;;;;;;;55.40;3.70;;;21.90;36.20;;;;;;5038653;28;20070;-66
2021/05/16 07:00:14;;;;;;;54.33;4.32;;;21.70;37.90;;;;;;5037403;28;20070;-65
2021/05/16 07:02:41;;;;;;;51.83;4.25;;;21.40;67.50;;;;;;5040295;28;20521;-69
2021/05/16 07:05:08;;;;;;;58.13;4.35;;;21.40;38.50;;;;;;5036935;28;20074;-65
2021/05/16 07:07:35;;;;;;;96.07;5.40;;;;;;;;;;5041951;28;20148;-64
2021/05/16 07:10:02;;;;;;;95.25;5.97;;;20.90;39.30;;;;;;5035595;28;20029;-66
2021/05/16 07:12:28;;;;;;;59.10;5.05;;;20.70;59.30;;;;;;5037573;28;20074;-66
2021/05/16 07:14:55;;;;;;;99.75;5.90;;;;;;;;;;5042848;28;20079;-63
2021/05/16 07:17:21;;;;;;;81.25;6.43;;;20.80;39.30;;;;;;5040407;28;20029;-65
2021/05/16 07:19:48;;;;;;;102.15;6.40;;;20.80;75.90;;;;;;5037782;28;20078;-66
2021/05/16 07:22:14;;;;;;;110.03;6.80;;;;;;;;;;5040548;28;20368;-66
2021/05/16 07:24:41;;;;;;;100.82;7.18;;;20.60;54.40;;;;;;5040220;28;20517;-65
2021/05/16 07:27:08;;;;;;;106.55;6.00;;;20.60;41.20;;;;;;5035647;28;20077;-64
2021/05/16 07:29:34;;;;;;;102.43;6.25;;;;;;;;;;5040837;28;20077;-66
2021/05/16 07:32:01;;;;;;;96.90;7.50;;;20.00;57.20;;;;;;5039370;28;20021;-64
2021/05/16 07:34:27;;;;;;;92.22;6.97;;;20.30;40.70;;;;;;5038314;28;20052;-65
2021/05/16 07:36:54;;;;;;;73.40;4.85;;;20.40;41.20;;;;;;5039165;28;20078;-66
2021/05/16 07:39:20;;;;;;;68.55;4.75;;;20.40;40.70;;;;;;5037332;28;20081;-66
2021/05/16 07:41:47;;;;;;;56.35;5.15;;;20.50;40.70;;;;;;5038190;28;20136;-66
2021/05/16 07:44:13;;;;;;;69.20;5.18;;;20.40;41.20;;;;;;5041903;28;20085;-64
2021/05/16 07:46:39;;;;;;;51.10;4.65;;;20.40;41.30;;;;;;5041575;28;20070;-66
2021/05/16 07:49:06;;;;;;;49.38;3.83;;;20.30;41.30;;;;;;5037181;28;20078;-65
2021/05/16 07:51:32;;;;;;;46.30;3.33;;;20.30;40.80;;;;;;5038798;28;20174;-66
2021/05/16 07:53:59;;;;;;;63.60;4.43;;;20.40;41.00;;;;;;5040411;28;20109;-65
2021/05/16 07:56:26;;;;;;;58.25;3.55;;;;;;;;;;5039824;28;20161;-65
2021/05/16 07:58:52;;;;;;;64.05;3.58;;;19.60;70.70;;;;;;5037378;28;20022;-63
2021/05/16 08:01:19;;;;;;;45.55;3.47;;;19.90;72.60;;;;;;5038073;28;20069;-67
2021/05/16 08:03:46;;;;;;;52.53;3.22;;;20.60;69.40;;;;;;5036237;28;20487;-65
2021/05/16 08:06:13;;;;;;;50.55;4.20;;;20.30;47.70;;;;;;5034802;28;20535;-66
2021/05/16 08:08:40;;;;;;;67.57;4.55;;;20.30;39.20;;;;;;5038267;28;20097;-64
2021/05/16 08:11:07;;;;;;;58.17;3.58;;;20.60;64.30;;;;;;5037479;28;20091;-65
2021/05/16 08:13:33;;;;;;;49.00;3.80;;;20.50;48.80;;;;;;5041943;28;20074;-66
2021/05/16 08:16:00;;;;;;;55.42;4.60;;;20.50;43.10;;;;;;5037467;28;20078;-64
2021/05/16 08:18:26;;;;;;;51.92;3.78;;;20.50;36.80;;;;;;5036950;28;20059;-66
2021/05/16 08:20:53;;;;;;;30.67;2.75;;;20.90;60.40;;;;;;5040117;28;20023;-65
2021/05/16 08:23:19;;;;;;;39.80;4.00;;;20.50;37.20;;;;;;5040301;28;20427;-65
2021/05/16 08:25:46;;;;;;;22.75;2.58;;;20.50;37.00;;;;;;5039802;28;20132;-66
2021/05/16 08:28:13;;;;;;;31.55;2.55;;;20.50;35.00;;;;;;5039708;28;20108;-66
2021/05/16 08:30:40;;;;;;;25.13;2.17;;;20.50;46.60;;;;;;5040055;28;20171;-66
2021/05/16 08:33:06;;;;;;;23.27;2.33;;;20.70;34.90;;;;;;5039492;28;20070;-65
2021/05/16 08:35:34;;;;;;;27.08;2.67;;;20.70;34.50;;;;;;5035574;28;20078;-66
2021/05/16 08:38:00;;;;;;;28.08;2.67;;;20.90;34.20;;;;;;5035497;28;20160;-66
2021/05/16 08:40:27;;;;;;;26.23;2.35;;;20.90;34.80;;;;;;5036880;28;20408;-63
2021/05/16 08:42:53;;;;;;;22.05;2.38;;;20.80;36.20;;;;;;5036351;28;20074;-66
2021/05/16 08:45:20;;;;;;;22.00;2.33;;;20.60;37.10;;;;;;5041341;28;20069;-65
2021/05/16 08:47:46;;;;;;;26.20;2.95;;;20.50;37.00;;;;;;5037574;28;20493;-67
2021/05/16 08:50:16;;;;;;;15.52;2.25;;;20.50;37.40;;;;;;5039728;28;20078;-64
2021/05/16 08:52:42;;;;;;;24.60;2.30;;;20.40;36.90;;;;;;5037379;28;20110;-66
2021/05/16 08:55:11;;;;;;;32.33;3.08;;;20.50;36.70;;;;;;5038912;28;20093;-65
2021/05/16 08:57:39;;;;;;;15.60;2.35;;;20.50;36.70;;;;;;5037232;28;20168;-64
2021/05/16 09:00:13;;;;;;;29.40;2.42;;;20.30;57.50;;;;;;5037911;28;20072;-62
2021/05/16 09:03:04;;;;;;;13.48;1.67;;;20.50;41.40;;;;;;5035303;28;20126;-65
2021/05/16 09:05:35;;;;;;;22.52;2.90;;;20.60;58.60;;;;;;5039656;28;20442;-65
2021/05/16 09:08:11;;;;;;;18.70;2.35;;;20.60;35.40;;;;;;5038345;28;20216;-67
2021/05/16 09:10:45;;;;;;;21.35;2.40;;;20.60;37.50;;;;;;5040354;28;20079;-66
2021/05/16 09:13:18;;;;;;;16.42;2.35;;;20.60;35.50;;;;;;5033099;28;20101;-67
2021/05/16 09:16:11;;;;;;;18.42;1.80;;;20.50;35.70;;;;;;5034255;28;20162;-65
2021/05/16 09:18:37;;;;;;;13.15;1.80;;;20.50;35.50;;;;;;5035479;28;20107;-64
2021/05/16 09:21:35;;;;;;;17.63;2.03;;;20.60;34.90;;;;;;5037756;28;20082;-66
2021/05/16 09:24:06;;;;;;;11.55;2.92;;;20.70;34.10;;;;;;5037877;28;20081;-66
2021/05/16 09:26:52;;;;;;;11.40;1.73;;;20.60;34.40;;;;;;5052006;28;20074;-65
2021/05/16 09:29:33;;;;;;;9.57;1.60;;;20.70;33.20;;;;;;5037172;28;20089;-65
2021/05/16 09:32:01;;;;;;;17.05;2.30;;;20.80;33.20;;;;;;5038409;28;20074;-64
2021/05/16 09:34:29;;;;;;;24.08;2.28;;;20.90;32.90;;;;;;5036636;28;20073;-65
2021/05/16 09:36:56;;;;;;;22.70;2.60;;;20.90;33.70;;;;;;5035942;28;20082;-64
2021/05/16 09:39:31;;;;;;;22.30;2.60;;;20.80;33.40;;;;;;5035954;28;20108;-65
2021/05/16 09:42:14;;;;;;;26.35;2.80;;;20.80;34.20;;;;;;5038817;28;20069;-64
2021/05/16 09:44:44;;;;;;;28.88;2.58;;;20.80;33.20;;;;;;5037771;28;20076;-66
2021/05/16 09:47:20;;;;;;;20.98;2.22;;;21.00;31.80;;;;;;5038040;28;20086;-64
2021/05/16 09:49:51;;;;;;;60.78;4.43;;;21.20;30.50;;;;;;5040743;28;20085;-66
2021/05/16 09:52:29;;;;;;;85.07;6.13;;;21.40;29.60;;;;;;5039591;28;20220;-68
2021/05/16 09:55:07;;;;;;;97.95;5.10;;;21.50;29.70;;;;;;5035874;28;20524;-63
2021/05/16 09:57:37;;;;;;;75.13;4.47;;;21.50;30.00;;;;;;5037088;28;20101;-66
2021/05/16 10:00:11;;;;;;;89.63;5.70;;;21.50;29.30;;;;;;5037711;28;20563;-65
2021/05/16 10:02:39;;;;;;;52.67;4.32;;;21.70;39.30;;;;;;5038684;28;20045;-64
2021/05/16 10:05:09;;;;;;;86.05;5.13;;;21.70;50.10;;;;;;5036406;28;20067;-64
2021/05/16 10:07:37;;;;;;;71.50;5.28;;;21.70;28.30;;;;;;5037519;28;20101;-63
2021/05/16 10:10:07;;;;;;;57.05;3.88;;;21.70;28.50;;;;;;5037936;28;20541;-63
2021/05/16 10:12:35;;;;;;;84.97;5.05;;;22.10;56.50;;;;;;5036972;28;20082;-66
2021/05/16 10:15:23;;;;;;;98.05;5.82;;;21.70;29.20;;;;;;5036785;28;20062;-66
2021/05/16 10:17:57;;;;;;;102.57;6.28;;;21.30;31.10;;;;;;5036722;28;20074;-63
2021/05/16 10:20:28;;;;;;;94.03;5.40;;;21.10;31.90;;;;;;5038542;28;20569;-63
2021/05/16 10:22:58;;;;;;;50.15;4.00;;;21.10;31.80;;;;;;5035669;28;20093;-64
2021/05/16 10:25:42;;;;;;;120.22;4.90;;;21.10;31.90;;;;;;5031122;28;20078;-65
2021/05/16 10:28:11;;;;;;;41.92;3.45;;;20.90;32.50;;;;;;5041287;28;20451;-66
2021/05/16 10:30:38;;;;;;;69.32;5.10;;;21.00;32.10;;;;;;5035818;28;20080;-63
2021/05/16 10:33:06;;;;;;;54.28;4.75;;;20.90;34.50;;;;;;5039337;28;20089;-61
2021/05/16 10:35:49;;;;;;;49.13;3.50;;;21.10;44.90;;;;;;5036735;28;20435;-61
2021/05/16 10:38:40;;;;;;;45.75;3.20;;;20.90;48.60;;;;;;5036132;28;20081;-65
2021/05/16 10:41:24;;;;;;;36.97;3.40;;;20.90;32.30;;;;;;5040619;28;20093;-66
2021/05/16 10:43:51;;;;;;;23.40;2.83;;;20.90;31.70;;;;;;5042763;28;20069;-66
2021/05/16 10:46:36;;;;;;;23.33;3.03;;;20.90;32.20;;;;;;5045723;28;20093;-65
2021/05/16 10:49:21;;;;;;;31.13;2.33;;;20.80;32.60;;;;;;5042778;28;20459;-65
2021/05/16 10:51:48;;;;;;;25.00;2.10;;;20.70;33.00;;;;;;5038981;28;20070;-66
2021/05/16 10:54:32;;;;;;;27.00;2.30;;;20.70;33.60;;;;;;5041848;28;20094;-63
2021/05/16 10:57:18;;;;;;;32.78;2.80;;;20.60;34.50;;;;;;5042577;28;20070;-64
2021/05/16 10:59:45;;;;;;;24.83;2.75;;;20.50;35.60;;;;;;5040913;28;20081;-64
2021/05/16 11:02:32;;;;;;;19.38;2.20;;;20.50;35.30;;;;;;5038035;28;20127;-65
2021/05/16 11:04:59;;;;;;;26.98;2.50;;;20.40;34.30;;;;;;5042412;28;20431;-65
2021/05/16 11:07:35;;;;;;;35.70;3.00;;;20.30;34.50;;;;;;5041532;28;20078;-65
2021/05/16 11:10:34;;;;;;;26.85;2.97;;;20.30;35.10;;;;;;5039529;28;20143;-65
2021/05/16 11:13:15;;;;;;;14.50;2.40;;;20.20;35.40;;;;;;4991890;28;20148;-64
2021/05/16 11:15:54;;;;;;;10.60;2.03;;;19.80;36.00;;;;;;5039602;28;20093;-66
2021/05/16 11:18:24;;;;;;;14.13;2.80;;;20.10;35.90;;;;;;5038498;28;20076;-64
2021/05/16 11:20:53;;;;;;;12.63;1.70;;;20.00;36.10;;;;;;5040303;28;20085;-64
2021/05/16 11:23:38;;;;;;;26.80;2.28;;;20.00;36.10;;;;;;5042042;28;20070;-65
2021/05/16 11:26:11;;;;;;;13.63;1.70;;;19.90;36.10;;;;;;5037095;28;20078;-65
2021/05/16 11:28:44;;;;;;;10.30;1.70;;;20.00;36.20;;;;;;5038749;28;20559;-65
2021/05/16 11:31:12;;;;;;;19.77;2.00;;;19.90;36.10;;;;;;5041290;28;20092;-65
2021/05/16 11:33:40;;;;;;;20.13;2.00;;;20.00;36.00;;;;;;5038967;28;20157;-66
2021/05/16 11:36:07;;;;;;;13.48;1.95;;;;;;;;;;5042122;28;20093;-65
2021/05/16 11:38:38;;;;;;;16.80;1.73;;;20.10;34.20;;;;;;5035395;28;20458;-63
2021/05/16 11:41:05;;;;;;;15.05;2.17;;;20.00;34.70;;;;;;5039017;28;20069;-65
2021/05/16 11:43:34;;;;;;;14.55;1.75;;;20.10;34.30;;;;;;5039280;28;20070;-66
2021/05/16 11:46:03;;;;;;;9.50;1.60;;;20.10;34.40;;;;;;5042045;28;20094;-65
2021/05/16 11:48:34;;;;;;;14.25;1.73;;;20.10;34.80;;;;;;5052270;28;20187;-66
2021/05/16 11:51:14;;;;;;;15.80;1.40;;;20.10;35.00;;;;;;5037699;28;20069;-66
2021/05/16 11:53:42;;;;;;;15.48;1.77;;;20.10;35.00;;;;;;5038873;28;20124;-64
2021/05/16 11:56:20;;;;;;;13.00;1.55;;;20.00;38.50;;;;;;5039969;28;20526;-65
2021/05/16 11:58:52;;;;;;;10.25;1.30;;;20.00;35.40;;;;;;5040338;28;20086;-63
2021/05/16 12:01:20;;;;;;;5.38;1.10;;;20.00;35.60;;;;;;5036820;28;20416;-65
2021/05/16 12:04:00;;;;;;;6.25;1.40;;;19.90;34.90;;;;;;5042116;28;20097;-66
2021/05/16 12:06:28;;;;;;;9.70;1.45;;;19.90;34.90;;;;;;5038291;28;20539;-64
2021/05/16 12:08:58;;;;;;;6.72;1.23;;;;;;;;;;5038469;28;20095;-65
2021/05/16 12:11:25;;;;;;;10.85;1.80;;;19.90;34.20;;;;;;5040641;28;20071;-65
2021/05/16 12:14:02;;;;;;;13.73;1.58;;;20.00;43.80;;;;;;5038995;28;20662;-65
2021/05/16 12:16:28;;;;;;;17.50;1.85;;;20.00;33.90;;;;;;5041643;28;20207;-66
2021/05/16 12:18:55;;;;;;;8.45;1.40;;;20.00;34.40;;;;;;5042460;28;20080;-68
2021/05/16 12:21:22;;;;;;;17.20;1.40;;;19.90;35.10;;;;;;5037844;28;20540;-67
2021/05/16 12:24:07;;;;;;;12.48;1.77;;;19.90;34.50;;;;;;5040215;28;20096;-66
2021/05/16 12:26:35;;;;;;;4.50;1.50;;;19.60;67.90;;;;;;5038258;28;20085;-66
2021/05/16 12:29:03;;;;;;;7.07;1.13;;;20.40;72.20;;;;;;5037061;28;20555;-66
2021/05/16 12:31:31;;;;;;;9.60;1.40;;;19.50;65.80;;;;;;5039385;28;20089;-66
2021/05/16 12:34:06;;;;;;;7.28;1.20;;;19.50;76.30;;;;;;5040913;28;20432;-67
2021/05/16 12:36:49;;;;;;;10.55;1.55;;;;;;;;;;5038031;28;20153;-66
2021/05/16 12:39:36;;;;;;;8.75;1.90;;;19.60;43.70;;;;;;5038239;28;20064;-66
2021/05/16 12:42:03;;;;;;;;;;;19.60;47.70;;;;;;5036392;28;20069;-66
2021/05/16 12:44:30;;;;;;;6.47;1.70;;;19.90;76.10;;;;;;5038809;28;19965;-65
2021/05/16 12:46:57;;;;;;;13.50;1.73;;;19.70;77.10;;;;;;5038271;28;20513;-66
2021/05/16 12:49:27;;;;;;;4.78;1.40;;;19.50;48.70;;;;;;5040238;28;20130;-64